This is the latest recevied weather packets stored in our database for station/object Ad4UU. If no packets are shown the sender has not sent any weather packets the latest 10 day(s).
| Time | Temp. | Humidity | Pressure | Rain* | Wind** | Luminosity | Snow |
|---|---|---|---|---|---|---|---|
| 1778074249 | 24.44° C | 81% | 1018.2 hPa | 0 mm | - | - | - |
| 1778073936 | 24.44° C | 81% | 1018.3 hPa | 0 mm | - | - | - |
| 1778072731 | 23.33° C | 83% | 1018.1 hPa | 0 mm | - | - | - |
| 1778071550 | 22.22° C | 83% | 1018.2 hPa | 0 mm | - | - | - |
| 1778067947 | 16.67° C | 92% | 1018 hPa | 0 mm | - | - | - |
| 1778066433 | 16.11° C | 92% | 1017.6 hPa | 0 mm | - | - | - |
| 1778066145 | 16.11° C | 92% | 1017.7 hPa | 0 mm | - | - | - |
| 1778065830 | 16.11° C | 93% | 1017.5 hPa | 0 mm | - | - | - |
| 1778064930 | 15.56° C | 92% | 1017.5 hPa | 0 mm | - | - | - |
| 1778063454 | 16.11° C | 91% | 1016.9 hPa | 0 mm | - | - | - |
| 1778062830 | 16.11° C | 90% | 1016.8 hPa | 0 mm | - | - | - |
| 1778062557 | 16.11° C | 90% | 1016.8 hPa | 0 mm | - | - | - |
| 1778061929 | 16.11° C | 91% | 1016.8 hPa | 0 mm | - | - | - |
| 1778060745 | 16.11° C | 90% | 1016.8 hPa | 0 mm | - | - | - |
| 1778060130 | 16.67° C | 89% | 1016.8 hPa | 0 mm | - | - | - |
| 1778058056 | 17.22° C | 88% | 1016.6 hPa | 0 mm | - | - | - |
| 1778056831 | 17.78° C | 86% | 1016.9 hPa | 0 mm | - | - | - |
| 1778055346 | 17.22° C | 86% | 1016.9 hPa | 0 mm | - | - | - |
| 1778052334 | 18.33° C | 84% | 1016.7 hPa | 0 mm | - | - | - |
| 1778052031 | 17.78° C | 84% | 1016.7 hPa | 0 mm | - | - | - |
| 1778050230 | 18.33° C | 81% | 1017.1 hPa | 0 mm | - | - | - |
| 1778049631 | 18.89° C | 81% | 1017 hPa | 0 mm | - | - | - |
| 1778046346 | 20.56° C | 74% | 1017.6 hPa | 0 mm | - | - | - |
| 1778045731 | 20.56° C | 74% | 1017.7 hPa | 0 mm | - | - | - |
| 1778045445 | 21.11° C | 73% | 1017.6 hPa | 0 mm | - | - | - |
* Rain latest hour (hover to see other rain measurements)
** Current wind speed in m/s (hover to see current wind gust speed)